TimeCDT,TemperatureF,Dew PointF,Humidity,Sea Level PressureIn,VisibilityMPH,Wind Direction,Wind SpeedMPH,Gust SpeedMPH,PrecipitationIn,Events,Conditions,WindDirDegrees,DateUTC
12:38 AM,77.0,73.4,89,29.76,10.0,ESE,3.5,-,N/A,Thunderstorm,Scattered Clouds,120,2013-09-01 05:38:00
12:52 AM,75.0,73.0,94,29.80,5.0,NNW,13.8,20.7,0.02,Rain-Thunderstorm,Thunderstorms and Rain,340,2013-09-01 05:52:00
1:22 AM,71.6,69.8,94,29.84,2.0,NNE,13.8,-,0.16,Rain-Thunderstorm,Heavy Thunderstorms and Rain,20,2013-09-01 06:22:00
1:30 AM,73.4,69.8,88,29.85,3.0,NE,17.3,25.3,0.26,Rain-Thunderstorm,Light Thunderstorms and Rain,40,2013-09-01 06:30:00
1:52 AM,71.1,66.9,87,29.83,10.0,East,10.4,-,0.26,Thunderstorm,Mostly Cloudy,100,2013-09-01 06:52:00
2:07 AM,69.8,66.2,88,29.86,10.0,East,10.4,-,0.00,Rain,Light Rain,80,2013-09-01 07:07:00
2:31 AM,69.8,68.0,94,29.92,5.0,NW,17.3,27.6,0.00,Rain-Thunderstorm,Light Rain,320,2013-09-01 07:31:00
2:52 AM,69.1,68.0,96,29.77,10.0,NE,9.2,-,0.14,Rain-Thunderstorm,Light Rain,40,2013-09-01 07:52:00
3:02 AM,69.8,68.0,94,29.84,10.0,WNW,4.6,-,0.00,Rain,Light Rain,300,2013-09-01 08:02:00
3:28 AM,69.8,68.0,94,29.86,10.0,WNW,4.6,-,0.00,,Mostly Cloudy,290,2013-09-01 08:28:00
3:52 AM,69.1,68.0,96,29.84,10.0,NW,8.1,-,0.00,,Mostly Cloudy,310,2013-09-01 08:52:00
4:18 AM,69.8,68.0,94,29.86,10.0,NNW,8.1,-,N/A,Thunderstorm,Partly Cloudy,330,2013-09-01 09:18:00
4:33 AM,69.8,68.0,94,29.87,10.0,NNW,9.2,-,N/A,,Clear,330,2013-09-01 09:33:00
4:52 AM,69.1,66.9,93,29.84,10.0,NNW,8.1,-,N/A,,Clear,330,2013-09-01 09:52:00
5:52 AM,68.0,66.0,93,29.86,10.0,NNW,8.1,-,N/A,,Clear,340,2013-09-01 10:52:00
6:52 AM,64.9,63.0,93,29.89,10.0,NW,5.8,-,N/A,,Clear,310,2013-09-01 11:52:00
7:52 AM,66.0,64.0,93,29.93,10.0,WNW,5.8,-,N/A,,Clear,290,2013-09-01 12:52:00
8:52 AM,68.0,63.0,84,29.96,10.0,NW,5.8,-,N/A,,Clear,320,2013-09-01 13:52:00
9:52 AM,71.1,64.0,78,29.95,10.0,NW,9.2,-,N/A,,Clear,310,2013-09-01 14:52:00
10:52 AM,73.9,64.0,71,29.95,10.0,NW,9.2,-,N/A,,Clear,320,2013-09-01 15:52:00
11:52 AM,75.9,64.0,67,29.95,10.0,NW,10.4,-,N/A,,Clear,310,2013-09-01 16:52:00
12:52 PM,79.0,60.1,52,29.94,10.0,NNW,16.1,-,N/A,,Clear,330,2013-09-01 17:52:00
1:52 PM,79.0,60.1,52,29.94,10.0,NNW,18.4,-,N/A,,Clear,340,2013-09-01 18:52:00
2:52 PM,80.1,59.0,48,29.93,10.0,NNW,16.1,21.9,N/A,,Clear,330,2013-09-01 19:52:00
3:52 PM,80.1,59.0,48,29.93,10.0,NNW,20.7,25.3,N/A,,Clear,340,2013-09-01 20:52:00
4:52 PM,80.1,60.1,50,29.93,10.0,NNW,16.1,23.0,N/A,,Clear,330,2013-09-01 21:52:00
5:52 PM,80.1,61.0,52,29.94,10.0,North,12.7,20.7,N/A,,Scattered Clouds,350,2013-09-01 22:52:00
6:52 PM,78.1,61.0,56,29.94,10.0,North,12.7,-,N/A,,Mostly Cloudy,350,2013-09-01 23:52:00
7:52 PM,73.0,61.0,66,29.95,10.0,North,8.1,-,N/A,,Clear,350,2013-09-02 00:52:00
8:52 PM,71.1,61.0,70,29.97,10.0,North,8.1,-,N/A,,Clear,360,2013-09-02 01:52:00
9:52 PM,69.1,60.1,73,29.99,10.0,North,8.1,-,N/A,,Clear,10,2013-09-02 02:52:00
10:52 PM,68.0,60.1,76,30.01,10.0,NNE,6.9,-,N/A,,Clear,30,2013-09-02 03:52:00
11:52 PM,66.0,60.1,81,30.03,10.0,NNE,5.8,-,N/A,,Clear,30,2013-09-02 04:52:00